sensor_id;sensor_type;location;lat;lon;timestamp;temperature;humidity
29663;DHT22;16578;53.266;7.920;2023-04-15T00:01:03;10.90;65.10
29663;DHT22;16578;53.266;7.920;2023-04-15T00:03:36;11.00;64.80
29663;DHT22;16578;53.266;7.920;2023-04-15T00:06:04;11.00;64.70
29663;DHT22;16578;53.266;7.920;2023-04-15T00:08:39;11.00;64.80
29663;DHT22;16578;53.266;7.920;2023-04-15T00:11:26;11.00;65.00
29663;DHT22;16578;53.266;7.920;2023-04-15T00:14:48;10.90;65.20
29663;DHT22;16578;53.266;7.920;2023-04-15T00:17:49;10.90;65.40
29663;DHT22;16578;53.266;7.920;2023-04-15T00:24:06;10.80;65.00
29663;DHT22;16578;53.266;7.920;2023-04-15T00:26:52;10.80;65.30
29663;DHT22;16578;53.266;7.920;2023-04-15T00:29:18;10.80;64.90
29663;DHT22;16578;53.266;7.920;2023-04-15T00:31:43;10.80;65.10
29663;DHT22;16578;53.266;7.920;2023-04-15T00:34:09;10.70;65.10
29663;DHT22;16578;53.266;7.920;2023-04-15T00:36:35;10.70;65.20
29663;DHT22;16578;53.266;7.920;2023-04-15T00:39:01;10.70;65.20
29663;DHT22;16578;53.266;7.920;2023-04-15T00:41:27;10.70;65.40
29663;DHT22;16578;53.266;7.920;2023-04-15T00:43:53;10.60;65.50
29663;DHT22;16578;53.266;7.920;2023-04-15T00:46:19;10.60;65.50
29663;DHT22;16578;53.266;7.920;2023-04-15T00:48:47;10.60;65.60
29663;DHT22;16578;53.266;7.920;2023-04-15T00:51:13;10.60;65.60
29663;DHT22;16578;53.266;7.920;2023-04-15T00:53:42;10.60;65.70
29663;DHT22;16578;53.266;7.920;2023-04-15T00:56:11;10.60;65.80
29663;DHT22;16578;53.266;7.920;2023-04-15T00:58:36;10.50;65.70
29663;DHT22;16578;53.266;7.920;2023-04-15T01:01:05;10.40;66.00
29663;DHT22;16578;53.266;7.920;2023-04-15T01:03:31;10.40;65.70
29663;DHT22;16578;53.266;7.920;2023-04-15T01:05:56;10.50;65.90
29663;DHT22;16578;53.266;7.920;2023-04-15T01:08:29;10.40;66.10
29663;DHT22;16578;53.266;7.920;2023-04-15T01:11:03;10.40;66.30
29663;DHT22;16578;53.266;7.920;2023-04-15T01:13:33;10.40;66.40
29663;DHT22;16578;53.266;7.920;2023-04-15T01:16:04;10.40;66.50
29663;DHT22;16578;53.266;7.920;2023-04-15T01:18:38;10.40;66.80
29663;DHT22;16578;53.266;7.920;2023-04-15T01:21:09;10.40;67.00
29663;DHT22;16578;53.266;7.920;2023-04-15T01:23:42;10.40;67.10
29663;DHT22;16578;53.266;7.920;2023-04-15T01:26:17;10.40;67.20
29663;DHT22;16578;53.266;7.920;2023-04-15T01:28:49;10.40;67.30
29663;DHT22;16578;53.266;7.920;2023-04-15T01:31:15;10.40;67.50
29663;DHT22;16578;53.266;7.920;2023-04-15T01:33:44;10.40;67.50
29663;DHT22;16578;53.266;7.920;2023-04-15T01:36:11;10.40;67.50
29663;DHT22;16578;53.266;7.920;2023-04-15T01:38:37;10.40;67.50
29663;DHT22;16578;53.266;7.920;2023-04-15T01:41:09;10.40;67.70
29663;DHT22;16578;53.266;7.920;2023-04-15T01:43:38;10.40;67.90
29663;DHT22;16578;53.266;7.920;2023-04-15T01:46:12;10.40;67.80
29663;DHT22;16578;53.266;7.920;2023-04-15T01:48:44;10.40;67.80
29663;DHT22;16578;53.266;7.920;2023-04-15T01:51:12;10.50;67.80
29663;DHT22;16578;53.266;7.920;2023-04-15T01:53:45;10.40;67.70
29663;DHT22;16578;53.266;7.920;2023-04-15T01:56:17;10.40;67.80
29663;DHT22;16578;53.266;7.920;2023-04-15T01:58:49;10.40;67.80
29663;DHT22;16578;53.266;7.920;2023-04-15T02:01:18;10.40;67.90
29663;DHT22;16578;53.266;7.920;2023-04-15T02:03:44;10.40;67.90
29663;DHT22;16578;53.266;7.920;2023-04-15T02:06:13;10.40;67.80
29663;DHT22;16578;53.266;7.920;2023-04-15T02:08:39;10.40;67.70
29663;DHT22;16578;53.266;7.920;2023-04-15T02:11:05;10.30;67.60
29663;DHT22;16578;53.266;7.920;2023-04-15T02:13:30;10.30;67.50
29663;DHT22;16578;53.266;7.920;2023-04-15T02:15:56;10.30;67.50
29663;DHT22;16578;53.266;7.920;2023-04-15T02:18:35;10.30;67.60
29663;DHT22;16578;53.266;7.920;2023-04-15T02:21:01;10.30;67.60
29663;DHT22;16578;53.266;7.920;2023-04-15T02:23:31;10.20;67.60
29663;DHT22;16578;53.266;7.920;2023-04-15T02:26:00;10.20;67.90
29663;DHT22;16578;53.266;7.920;2023-04-15T02:28:41;10.20;68.00
29663;DHT22;16578;53.266;7.920;2023-04-15T02:31:09;10.20;68.20
29663;DHT22;16578;53.266;7.920;2023-04-15T02:33:35;10.20;68.20
29663;DHT22;16578;53.266;7.920;2023-04-15T02:36:02;10.20;68.40
29663;DHT22;16578;53.266;7.920;2023-04-15T02:38:28;10.10;68.30
29663;DHT22;16578;53.266;7.920;2023-04-15T02:40:54;10.10;68.20
29663;DHT22;16578;53.266;7.920;2023-04-15T02:43:23;10.10;68.30
29663;DHT22;16578;53.266;7.920;2023-04-15T02:45:49;10.10;68.20
29663;DHT22;16578;53.266;7.920;2023-04-15T02:48:23;10.10;68.20
29663;DHT22;16578;53.266;7.920;2023-04-15T02:51:25;9.90;68.40
29663;DHT22;16578;53.266;7.920;2023-04-15T02:54:00;10.00;68.10
29663;DHT22;16578;53.266;7.920;2023-04-15T02:56:26;9.90;67.90
29663;DHT22;16578;53.266;7.920;2023-04-15T02:58:59;9.90;68.00
29663;DHT22;16578;53.266;7.920;2023-04-15T03:01:24;9.90;68.10
29663;DHT22;16578;53.266;7.920;2023-04-15T03:03:50;9.90;68.30
29663;DHT22;16578;53.266;7.920;2023-04-15T03:06:16;9.80;68.40
29663;DHT22;16578;53.266;7.920;2023-04-15T03:08:41;9.80;68.50
29663;DHT22;16578;53.266;7.920;2023-04-15T03:11:07;9.80;68.60
29663;DHT22;16578;53.266;7.920;2023-04-15T03:13:33;9.80;68.80
29663;DHT22;16578;53.266;7.920;2023-04-15T03:15:58;9.80;68.80
29663;DHT22;16578;53.266;7.920;2023-04-15T03:18:24;9.80;69.00
29663;DHT22;16578;53.266;7.920;2023-04-15T03:20:49;9.80;69.20
29663;DHT22;16578;53.266;7.920;2023-04-15T03:23:15;9.90;69.20
29663;DHT22;16578;53.266;7.920;2023-04-15T03:25:41;9.80;69.30
29663;DHT22;16578;53.266;7.920;2023-04-15T03:28:06;9.80;69.40
29663;DHT22;16578;53.266;7.920;2023-04-15T03:30:32;9.80;69.60
29663;DHT22;16578;53.266;7.920;2023-04-15T03:32:58;9.80;69.70
29663;DHT22;16578;53.266;7.920;2023-04-15T03:35:23;9.80;69.80
29663;DHT22;16578;53.266;7.920;2023-04-15T03:37:49;9.80;69.80
29663;DHT22;16578;53.266;7.920;2023-04-15T03:40:15;9.80;70.00
29663;DHT22;16578;53.266;7.920;2023-04-15T03:42:40;9.80;70.10
29663;DHT22;16578;53.266;7.920;2023-04-15T03:45:06;9.80;70.20
29663;DHT22;16578;53.266;7.920;2023-04-15T03:47:32;9.80;70.30
29663;DHT22;16578;53.266;7.920;2023-04-15T03:49:57;9.80;70.40
29663;DHT22;16578;53.266;7.920;2023-04-15T03:52:23;9.80;70.40
29663;DHT22;16578;53.266;7.920;2023-04-15T03:54:49;9.80;70.40
29663;DHT22;16578;53.266;7.920;2023-04-15T03:57:14;9.80;70.40
29663;DHT22;16578;53.266;7.920;2023-04-15T03:59:40;9.80;70.50
29663;DHT22;16578;53.266;7.920;2023-04-15T04:02:05;9.80;70.60
29663;DHT22;16578;53.266;7.920;2023-04-15T04:04:31;9.80;70.60
29663;DHT22;16578;53.266;7.920;2023-04-15T04:06:56;9.80;70.60
29663;DHT22;16578;53.266;7.920;2023-04-15T04:09:22;9.80;70.60
29663;DHT22;16578;53.266;7.920;2023-04-15T04:11:47;9.80;70.70
29663;DHT22;16578;53.266;7.920;2023-04-15T04:14:13;9.70;70.70
29663;DHT22;16578;53.266;7.920;2023-04-15T04:16:38;9.70;70.80
29663;DHT22;16578;53.266;7.920;2023-04-15T04:19:04;9.70;70.90
29663;DHT22;16578;53.266;7.920;2023-04-15T04:21:29;9.80;71.10
29663;DHT22;16578;53.266;7.920;2023-04-15T04:23:55;9.70;71.20
29663;DHT22;16578;53.266;7.920;2023-04-15T04:26:21;9.80;71.40
29663;DHT22;16578;53.266;7.920;2023-04-15T04:28:47;9.70;71.40
29663;DHT22;16578;53.266;7.920;2023-04-15T04:31:12;9.80;71.60
29663;DHT22;16578;53.266;7.920;2023-04-15T04:33:38;9.80;71.60
29663;DHT22;16578;53.266;7.920;2023-04-15T04:36:04;9.80;71.80
29663;DHT22;16578;53.266;7.920;2023-04-15T04:38:30;9.80;71.80
29663;DHT22;16578;53.266;7.920;2023-04-15T04:40:55;9.70;71.90
29663;DHT22;16578;53.266;7.920;2023-04-15T04:43:21;9.80;72.10
29663;DHT22;16578;53.266;7.920;2023-04-15T04:45:46;9.80;72.10
29663;DHT22;16578;53.266;7.920;2023-04-15T04:48:12;9.80;72.20
29663;DHT22;16578;53.266;7.920;2023-04-15T04:50:38;9.80;72.30
29663;DHT22;16578;53.266;7.920;2023-04-15T04:53:03;9.80;72.40
29663;DHT22;16578;53.266;7.920;2023-04-15T04:55:29;9.80;72.40
29663;DHT22;16578;53.266;7.920;2023-04-15T04:57:56;9.80;72.60
29663;DHT22;16578;53.266;7.920;2023-04-15T05:00:21;9.80;72.60
29663;DHT22;16578;53.266;7.920;2023-04-15T05:02:47;9.90;72.80
29663;DHT22;16578;53.266;7.920;2023-04-15T05:05:12;9.90;72.90
29663;DHT22;16578;53.266;7.920;2023-04-15T05:07:38;9.90;72.90
29663;DHT22;16578;53.266;7.920;2023-04-15T05:10:04;10.00;73.00
29663;DHT22;16578;53.266;7.920;2023-04-15T05:12:30;10.00;73.10
29663;DHT22;16578;53.266;7.920;2023-04-15T05:14:56;10.00;73.10
29663;DHT22;16578;53.266;7.920;2023-04-15T05:17:22;10.10;73.30
29663;DHT22;16578;53.266;7.920;2023-04-15T05:19:50;10.10;73.20
29663;DHT22;16578;53.266;7.920;2023-04-15T05:22:15;10.10;73.30
29663;DHT22;16578;53.266;7.920;2023-04-15T05:24:41;10.10;73.20
29663;DHT22;16578;53.266;7.920;2023-04-15T05:27:06;10.20;73.30
29663;DHT22;16578;53.266;7.920;2023-04-15T05:29:33;10.20;73.30
29663;DHT22;16578;53.266;7.920;2023-04-15T05:32:01;10.20;73.30
29663;DHT22;16578;53.266;7.920;2023-04-15T05:34:27;10.30;73.50
29663;DHT22;16578;53.266;7.920;2023-04-15T05:36:52;10.30;73.50
29663;DHT22;16578;53.266;7.920;2023-04-15T05:39:18;10.30;73.50
29663;DHT22;16578;53.266;7.920;2023-04-15T05:41:43;10.40;73.70
29663;DHT22;16578;53.266;7.920;2023-04-15T05:44:09;10.40;73.80
29663;DHT22;16578;53.266;7.920;2023-04-15T05:46:35;10.50;73.80
29663;DHT22;16578;53.266;7.920;2023-04-15T05:49:00;10.50;73.80
29663;DHT22;16578;53.266;7.920;2023-04-15T05:51:26;10.60;74.00
29663;DHT22;16578;53.266;7.920;2023-04-15T05:53:51;10.60;73.90
29663;DHT22;16578;53.266;7.920;2023-04-15T05:56:17;10.60;73.90
29663;DHT22;16578;53.266;7.920;2023-04-15T05:58:43;10.70;73.90
29663;DHT22;16578;53.266;7.920;2023-04-15T06:01:08;10.70;74.00
29663;DHT22;16578;53.266;7.920;2023-04-15T06:03:34;10.70;74.00
29663;DHT22;16578;53.266;7.920;2023-04-15T06:05:59;10.80;73.90
29663;DHT22;16578;53.266;7.920;2023-04-15T06:08:25;10.80;74.10
29663;DHT22;16578;53.266;7.920;2023-04-15T06:10:52;10.80;74.10
29663;DHT22;16578;53.266;7.920;2023-04-15T06:13:17;10.90;74.10
29663;DHT22;16578;53.266;7.920;2023-04-15T06:15:43;10.90;74.20
29663;DHT22;16578;53.266;7.920;2023-04-15T06:18:08;10.90;74.30
29663;DHT22;16578;53.266;7.920;2023-04-15T06:20:34;10.90;74.20
29663;DHT22;16578;53.266;7.920;2023-04-15T06:23:00;11.00;74.30
29663;DHT22;16578;53.266;7.920;2023-04-15T06:25:26;11.00;74.30
29663;DHT22;16578;53.266;7.920;2023-04-15T06:27:51;11.10;74.40
29663;DHT22;16578;53.266;7.920;2023-04-15T06:30:17;11.10;74.40
29663;DHT22;16578;53.266;7.920;2023-04-15T06:32:43;11.10;74.40
29663;DHT22;16578;53.266;7.920;2023-04-15T06:35:08;11.20;74.60
29663;DHT22;16578;53.266;7.920;2023-04-15T06:37:34;11.20;74.60
29663;DHT22;16578;53.266;7.920;2023-04-15T06:40:00;11.30;74.60
29663;DHT22;16578;53.266;7.920;2023-04-15T06:42:25;11.30;74.60
29663;DHT22;16578;53.266;7.920;2023-04-15T06:44:51;11.30;74.70
29663;DHT22;16578;53.266;7.920;2023-04-15T06:47:16;11.40;74.80
29663;DHT22;16578;53.266;7.920;2023-04-15T06:49:42;11.40;74.90
29663;DHT22;16578;53.266;7.920;2023-04-15T06:52:09;11.50;75.00
29663;DHT22;16578;53.266;7.920;2023-04-15T06:54:35;11.50;74.80
29663;DHT22;16578;53.266;7.920;2023-04-15T06:57:01;11.60;74.90
29663;DHT22;16578;53.266;7.920;2023-04-15T06:59:26;11.60;74.90
29663;DHT22;16578;53.266;7.920;2023-04-15T07:01:52;11.70;74.70
29663;DHT22;16578;53.266;7.920;2023-04-15T07:04:18;11.70;74.80
29663;DHT22;16578;53.266;7.920;2023-04-15T07:06:44;11.80;74.80
29663;DHT22;16578;53.266;7.920;2023-04-15T07:09:11;11.80;75.00
29663;DHT22;16578;53.266;7.920;2023-04-15T07:11:39;11.80;75.20
29663;DHT22;16578;53.266;7.920;2023-04-15T07:14:04;11.90;75.00
29663;DHT22;16578;53.266;7.920;2023-04-15T07:16:30;11.90;75.00
29663;DHT22;16578;53.266;7.920;2023-04-15T07:18:56;11.90;75.00
29663;DHT22;16578;53.266;7.920;2023-04-15T07:21:22;11.90;75.10
29663;DHT22;16578;53.266;7.920;2023-04-15T07:23:48;12.00;75.20
29663;DHT22;16578;53.266;7.920;2023-04-15T07:26:13;12.00;75.30
29663;DHT22;16578;53.266;7.920;2023-04-15T07:28:39;12.10;75.30
29663;DHT22;16578;53.266;7.920;2023-04-15T07:31:04;12.10;75.30
29663;DHT22;16578;53.266;7.920;2023-04-15T07:33:30;12.10;75.40
29663;DHT22;16578;53.266;7.920;2023-04-15T07:35:56;12.10;75.30
29663;DHT22;16578;53.266;7.920;2023-04-15T07:38:21;12.10;75.20
29663;DHT22;16578;53.266;7.920;2023-04-15T07:40:47;12.20;75.20
29663;DHT22;16578;53.266;7.920;2023-04-15T07:43:13;12.20;75.20
29663;DHT22;16578;53.266;7.920;2023-04-15T07:45:39;12.20;75.00
29663;DHT22;16578;53.266;7.920;2023-04-15T07:48:05;12.20;75.00
29663;DHT22;16578;53.266;7.920;2023-04-15T07:50:31;12.20;75.00
29663;DHT22;16578;53.266;7.920;2023-04-15T07:52:56;12.20;74.80
29663;DHT22;16578;53.266;7.920;2023-04-15T07:55:22;12.20;74.90
29663;DHT22;16578;53.266;7.920;2023-04-15T07:57:48;12.20;75.10
29663;DHT22;16578;53.266;7.920;2023-04-15T08:00:15;12.20;74.70
29663;DHT22;16578;53.266;7.920;2023-04-15T08:02:41;12.30;74.90
29663;DHT22;16578;53.266;7.920;2023-04-15T08:05:08;12.20;74.90
29663;DHT22;16578;53.266;7.920;2023-04-15T08:07:33;12.30;74.90
29663;DHT22;16578;53.266;7.920;2023-04-15T08:09:59;12.20;75.00
29663;DHT22;16578;53.266;7.920;2023-04-15T08:12:25;12.30;74.90
29663;DHT22;16578;53.266;7.920;2023-04-15T08:14:50;12.30;74.80
29663;DHT22;16578;53.266;7.920;2023-04-15T08:17:16;12.30;75.00
29663;DHT22;16578;53.266;7.920;2023-04-15T08:19:42;12.30;75.20
29663;DHT22;16578;53.266;7.920;2023-04-15T08:22:07;12.20;75.10
29663;DHT22;16578;53.266;7.920;2023-04-15T08:24:33;12.20;75.30
29663;DHT22;16578;53.266;7.920;2023-04-15T08:26:59;12.30;75.50
29663;DHT22;16578;53.266;7.920;2023-04-15T08:29:26;12.30;75.90
29663;DHT22;16578;53.266;7.920;2023-04-15T08:31:52;12.30;76.80
29663;DHT22;16578;53.266;7.920;2023-04-15T08:34:18;12.30;76.00
29663;DHT22;16578;53.266;7.920;2023-04-15T08:36:44;12.30;75.90
29663;DHT22;16578;53.266;7.920;2023-04-15T08:39:09;12.40;75.80
29663;DHT22;16578;53.266;7.920;2023-04-15T08:41:53;12.40;76.00
29663;DHT22;16578;53.266;7.920;2023-04-15T08:44:22;12.40;76.10
29663;DHT22;16578;53.266;7.920;2023-04-15T08:46:48;12.40;75.90
29663;DHT22;16578;53.266;7.920;2023-04-15T08:49:14;12.40;75.80
29663;DHT22;16578;53.266;7.920;2023-04-15T08:51:42;12.40;75.90
29663;DHT22;16578;53.266;7.920;2023-04-15T08:54:08;12.40;75.90
29663;DHT22;16578;53.266;7.920;2023-04-15T08:56:35;12.40;76.10
29663;DHT22;16578;53.266;7.920;2023-04-15T08:59:01;12.40;76.10
29663;DHT22;16578;53.266;7.920;2023-04-15T09:01:28;12.40;76.20
29663;DHT22;16578;53.266;7.920;2023-04-15T09:03:53;12.40;75.90
29663;DHT22;16578;53.266;7.920;2023-04-15T09:06:21;12.40;76.10
29663;DHT22;16578;53.266;7.920;2023-04-15T09:08:47;12.40;76.10
29663;DHT22;16578;53.266;7.920;2023-04-15T09:11:12;12.40;75.90
29663;DHT22;16578;53.266;7.920;2023-04-15T09:13:38;12.40;75.80
29663;DHT22;16578;53.266;7.920;2023-04-15T09:16:05;12.40;76.00
29663;DHT22;16578;53.266;7.920;2023-04-15T09:18:34;12.40;76.00
29663;DHT22;16578;53.266;7.920;2023-04-15T09:21:07;12.40;76.20
29663;DHT22;16578;53.266;7.920;2023-04-15T09:23:37;12.40;76.40
29663;DHT22;16578;53.266;7.920;2023-04-15T09:26:03;12.40;76.20
29663;DHT22;16578;53.266;7.920;2023-04-15T09:28:30;12.40;76.40
29663;DHT22;16578;53.266;7.920;2023-04-15T09:30:57;12.40;76.40
29663;DHT22;16578;53.266;7.920;2023-04-15T09:33:23;12.40;76.10
29663;DHT22;16578;53.266;7.920;2023-04-15T09:35:56;12.40;76.10
29663;DHT22;16578;53.266;7.920;2023-04-15T09:38:22;12.40;76.20
29663;DHT22;16578;53.266;7.920;2023-04-15T09:40:48;12.40;76.10
29663;DHT22;16578;53.266;7.920;2023-04-15T09:43:13;12.40;76.30
29663;DHT22;16578;53.266;7.920;2023-04-15T09:45:47;12.40;76.40
29663;DHT22;16578;53.266;7.920;2023-04-15T09:50:43;12.40;76.50
29663;DHT22;16578;53.266;7.920;2023-04-15T09:53:09;12.40;76.60
29663;DHT22;16578;53.266;7.920;2023-04-15T09:55:36;12.30;76.70
29663;DHT22;16578;53.266;7.920;2023-04-15T09:58:07;12.40;76.60
29663;DHT22;16578;53.266;7.920;2023-04-15T10:00:33;12.40;76.60
29663;DHT22;16578;53.266;7.920;2023-04-15T10:02:59;12.40;76.80
29663;DHT22;16578;53.266;7.920;2023-04-15T10:05:25;12.30;76.70
29663;DHT22;16578;53.266;7.920;2023-04-15T10:07:51;12.40;76.60
29663;DHT22;16578;53.266;7.920;2023-04-15T10:10:17;12.30;76.50
29663;DHT22;16578;53.266;7.920;2023-04-15T10:12:42;12.40;76.70
29663;DHT22;16578;53.266;7.920;2023-04-15T10:15:14;12.40;76.90
29663;DHT22;16578;53.266;7.920;2023-04-15T10:17:43;12.40;76.80
29663;DHT22;16578;53.266;7.920;2023-04-15T10:20:09;12.40;76.90
29663;DHT22;16578;53.266;7.920;2023-04-15T10:22:37;12.30;77.00
29663;DHT22;16578;53.266;7.920;2023-04-15T10:25:05;12.40;77.20
29663;DHT22;16578;53.266;7.920;2023-04-15T10:27:30;12.40;77.30
29663;DHT22;16578;53.266;7.920;2023-04-15T10:29:59;12.40;77.60
29663;DHT22;16578;53.266;7.920;2023-04-15T10:32:25;12.50;77.30
29663;DHT22;16578;53.266;7.920;2023-04-15T10:34:51;12.50;77.30
29663;DHT22;16578;53.266;7.920;2023-04-15T10:37:32;12.50;77.20
29663;DHT22;16578;53.266;7.920;2023-04-15T10:39:58;12.50;77.20
29663;DHT22;16578;53.266;7.920;2023-04-15T10:42:24;12.50;76.90
29663;DHT22;16578;53.266;7.920;2023-04-15T10:44:57;12.50;77.10
29663;DHT22;16578;53.266;7.920;2023-04-15T10:47:24;12.50;77.10
29663;DHT22;16578;53.266;7.920;2023-04-15T10:49:56;12.50;77.10
29663;DHT22;16578;53.266;7.920;2023-04-15T10:52:24;12.50;77.10
29663;DHT22;16578;53.266;7.920;2023-04-15T10:55:11;12.50;77.10
29663;DHT22;16578;53.266;7.920;2023-04-15T10:57:39;12.50;77.40
29663;DHT22;16578;53.266;7.920;2023-04-15T11:02:41;12.60;77.60
29663;DHT22;16578;53.266;7.920;2023-04-15T11:05:08;12.60;77.50
29663;DHT22;16578;53.266;7.920;2023-04-15T11:07:51;12.60;77.60
29663;DHT22;16578;53.266;7.920;2023-04-15T11:12:47;12.70;77.60
29663;DHT22;16578;53.266;7.920;2023-04-15T11:17:59;12.70;77.40
29663;DHT22;16578;53.266;7.920;2023-04-15T11:20:33;12.70;77.40
29663;DHT22;16578;53.266;7.920;2023-04-15T11:22:58;12.70;77.30
29663;DHT22;16578;53.266;7.920;2023-04-15T11:25:26;12.70;76.90
29663;DHT22;16578;53.266;7.920;2023-04-15T11:27:53;12.70;76.90
29663;DHT22;16578;53.266;7.920;2023-04-15T11:30:20;12.70;76.90
29663;DHT22;16578;53.266;7.920;2023-04-15T11:32:47;12.70;77.10
29663;DHT22;16578;53.266;7.920;2023-04-15T11:35:13;12.70;77.20
29663;DHT22;16578;53.266;7.920;2023-04-15T11:37:38;12.70;77.40
29663;DHT22;16578;53.266;7.920;2023-04-15T11:40:05;12.70;77.20
29663;DHT22;16578;53.266;7.920;2023-04-15T11:42:31;12.70;77.20
29663;DHT22;16578;53.266;7.920;2023-04-15T11:47:32;12.70;77.10
29663;DHT22;16578;53.266;7.920;2023-04-15T11:50:13;12.60;77.00
29663;DHT22;16578;53.266;7.920;2023-04-15T11:52:39;12.60;77.00
29663;DHT22;16578;53.266;7.920;2023-04-15T11:55:06;12.60;77.10
29663;DHT22;16578;53.266;7.920;2023-04-15T11:57:34;12.50;76.90
29663;DHT22;16578;53.266;7.920;2023-04-15T11:59:59;12.50;77.10
29663;DHT22;16578;53.266;7.920;2023-04-15T12:02:31;12.40;77.00
29663;DHT22;16578;53.266;7.920;2023-04-15T12:05:04;12.50;77.40
29663;DHT22;16578;53.266;7.920;2023-04-15T12:07:30;12.50;77.50
29663;DHT22;16578;53.266;7.920;2023-04-15T12:09:56;12.40;77.30
29663;DHT22;16578;53.266;7.920;2023-04-15T12:12:26;12.40;77.60
29663;DHT22;16578;53.266;7.920;2023-04-15T12:14:53;12.40;77.70
29663;DHT22;16578;53.266;7.920;2023-04-15T12:17:22;12.40;77.70
29663;DHT22;16578;53.266;7.920;2023-04-15T12:19:48;12.40;77.70
29663;DHT22;16578;53.266;7.920;2023-04-15T12:22:16;12.40;77.90
29663;DHT22;16578;53.266;7.920;2023-04-15T12:24:43;12.40;77.90
29663;DHT22;16578;53.266;7.920;2023-04-15T12:27:11;12.40;78.00
29663;DHT22;16578;53.266;7.920;2023-04-15T12:29:39;12.50;78.00
29663;DHT22;16578;53.266;7.920;2023-04-15T12:34:37;12.50;78.00
29663;DHT22;16578;53.266;7.920;2023-04-15T12:37:04;12.50;78.10
29663;DHT22;16578;53.266;7.920;2023-04-15T12:39:33;12.60;78.10
29663;DHT22;16578;53.266;7.920;2023-04-15T12:41:59;12.60;78.10
29663;DHT22;16578;53.266;7.920;2023-04-15T12:44:26;12.60;78.10
29663;DHT22;16578;53.266;7.920;2023-04-15T12:46:52;12.60;78.10
29663;DHT22;16578;53.266;7.920;2023-04-15T12:49:19;12.60;78.10
29663;DHT22;16578;53.266;7.920;2023-04-15T12:51:48;12.60;78.30
29663;DHT22;16578;53.266;7.920;2023-04-15T12:54:15;12.60;78.20
29663;DHT22;16578;53.266;7.920;2023-04-15T12:56:42;12.60;78.20
29663;DHT22;16578;53.266;7.920;2023-04-15T12:59:07;12.60;78.30
29663;DHT22;16578;53.266;7.920;2023-04-15T13:01:33;12.60;78.30
29663;DHT22;16578;53.266;7.920;2023-04-15T13:03:58;12.60;78.20
29663;DHT22;16578;53.266;7.920;2023-04-15T13:06:24;12.70;78.30
29663;DHT22;16578;53.266;7.920;2023-04-15T13:08:50;12.70;78.20
29663;DHT22;16578;53.266;7.920;2023-04-15T13:11:15;12.70;78.20
29663;DHT22;16578;53.266;7.920;2023-04-15T13:13:41;12.70;78.10
29663;DHT22;16578;53.266;7.920;2023-04-15T13:16:07;12.70;78.10
29663;DHT22;16578;53.266;7.920;2023-04-15T13:18:34;12.70;78.20
29663;DHT22;16578;53.266;7.920;2023-04-15T13:21:00;12.70;78.30
29663;DHT22;16578;53.266;7.920;2023-04-15T13:23:26;12.70;78.40
29663;DHT22;16578;53.266;7.920;2023-04-15T13:25:51;12.70;78.50
29663;DHT22;16578;53.266;7.920;2023-04-15T13:28:17;12.70;78.50
29663;DHT22;16578;53.266;7.920;2023-04-15T13:30:43;12.70;78.70
29663;DHT22;16578;53.266;7.920;2023-04-15T13:33:08;12.70;78.60
29663;DHT22;16578;53.266;7.920;2023-04-15T13:35:34;12.70;78.60
29663;DHT22;16578;53.266;7.920;2023-04-15T13:38:00;12.70;78.50
29663;DHT22;16578;53.266;7.920;2023-04-15T13:40:26;12.70;78.50
29663;DHT22;16578;53.266;7.920;2023-04-15T13:42:51;12.70;78.50
29663;DHT22;16578;53.266;7.920;2023-04-15T13:45:17;12.80;78.70
29663;DHT22;16578;53.266;7.920;2023-04-15T13:47:43;12.70;78.60
29663;DHT22;16578;53.266;7.920;2023-04-15T13:50:09;12.80;78.70
29663;DHT22;16578;53.266;7.920;2023-04-15T13:52:35;12.70;78.70
29663;DHT22;16578;53.266;7.920;2023-04-15T13:55:01;12.80;78.70
29663;DHT22;16578;53.266;7.920;2023-04-15T13:57:27;12.70;78.70
29663;DHT22;16578;53.266;7.920;2023-04-15T13:59:52;12.70;78.70
29663;DHT22;16578;53.266;7.920;2023-04-15T14:02:20;12.80;79.00
29663;DHT22;16578;53.266;7.920;2023-04-15T14:04:46;12.80;79.00
29663;DHT22;16578;53.266;7.920;2023-04-15T14:07:11;12.80;78.90
29663;DHT22;16578;53.266;7.920;2023-04-15T14:09:37;12.80;79.10
29663;DHT22;16578;53.266;7.920;2023-04-15T14:12:02;12.80;79.10
29663;DHT22;16578;53.266;7.920;2023-04-15T14:14:28;12.80;79.30
29663;DHT22;16578;53.266;7.920;2023-04-15T14:16:54;12.80;79.30
29663;DHT22;16578;53.266;7.920;2023-04-15T14:19:20;12.80;79.30
29663;DHT22;16578;53.266;7.920;2023-04-15T14:21:46;12.80;79.30
29663;DHT22;16578;53.266;7.920;2023-04-15T14:24:12;12.80;79.20
29663;DHT22;16578;53.266;7.920;2023-04-15T14:26:37;12.70;79.20
29663;DHT22;16578;53.266;7.920;2023-04-15T14:29:03;12.70;79.30
29663;DHT22;16578;53.266;7.920;2023-04-15T14:31:28;12.70;79.40
29663;DHT22;16578;53.266;7.920;2023-04-15T14:33:54;12.70;79.50
29663;DHT22;16578;53.266;7.920;2023-04-15T14:36:20;12.80;79.60
29663;DHT22;16578;53.266;7.920;2023-04-15T14:38:45;12.80;79.70
29663;DHT22;16578;53.266;7.920;2023-04-15T14:41:11;12.80;79.60
29663;DHT22;16578;53.266;7.920;2023-04-15T14:43:37;12.80;79.50
29663;DHT22;16578;53.266;7.920;2023-04-15T14:46:02;12.80;79.60
29663;DHT22;16578;53.266;7.920;2023-04-15T14:48:30;12.90;79.80
29663;DHT22;16578;53.266;7.920;2023-04-15T14:50:56;12.90;79.90
29663;DHT22;16578;53.266;7.920;2023-04-15T14:53:21;12.90;79.90
29663;DHT22;16578;53.266;7.920;2023-04-15T14:55:47;12.90;79.80
29663;DHT22;16578;53.266;7.920;2023-04-15T14:58:12;12.90;79.70
29663;DHT22;16578;53.266;7.920;2023-04-15T15:00:38;12.90;79.80
29663;DHT22;16578;53.266;7.920;2023-04-15T15:03:10;13.00;79.70
29663;DHT22;16578;53.266;7.920;2023-04-15T15:05:40;13.00;79.80
29663;DHT22;16578;53.266;7.920;2023-04-15T15:08:06;13.00;79.90
29663;DHT22;16578;53.266;7.920;2023-04-15T15:10:32;13.00;79.90
29663;DHT22;16578;53.266;7.920;2023-04-15T15:12:58;13.00;80.10
29663;DHT22;16578;53.266;7.920;2023-04-15T15:15:24;13.10;80.20
29663;DHT22;16578;53.266;7.920;2023-04-15T15:17:49;13.10;80.00
29663;DHT22;16578;53.266;7.920;2023-04-15T15:20:16;13.10;80.10
29663;DHT22;16578;53.266;7.920;2023-04-15T15:22:41;13.20;80.20
29663;DHT22;16578;53.266;7.920;2023-04-15T15:25:07;13.20;80.30
29663;DHT22;16578;53.266;7.920;2023-04-15T15:27:32;13.30;80.30
29663;DHT22;16578;53.266;7.920;2023-04-15T15:29:58;13.30;80.40
29663;DHT22;16578;53.266;7.920;2023-04-15T15:32:24;13.30;80.20
29663;DHT22;16578;53.266;7.920;2023-04-15T15:34:49;13.40;80.30
29663;DHT22;16578;53.266;7.920;2023-04-15T15:37:15;13.40;80.30
29663;DHT22;16578;53.266;7.920;2023-04-15T15:39:40;13.50;80.30
29663;DHT22;16578;53.266;7.920;2023-04-15T15:42:06;13.50;80.30
29663;DHT22;16578;53.266;7.920;2023-04-15T15:44:32;13.60;80.20
29663;DHT22;16578;53.266;7.920;2023-04-15T15:46:58;13.60;80.00
29663;DHT22;16578;53.266;7.920;2023-04-15T15:49:24;13.70;79.90
29663;DHT22;16578;53.266;7.920;2023-04-15T15:51:50;13.70;79.80